createdAt,value
2018-10-09T00:00:04.424Z,22.77
2018-10-09T00:04:57.105Z,24.80
2018-10-09T00:09:49.913Z,22.93
2018-10-09T00:14:42.541Z,24.60
2018-10-09T00:19:35.305Z,22.10
2018-10-09T00:24:27.890Z,24.20
2018-10-09T00:29:20.525Z,25.23
2018-10-09T00:34:13.218Z,21.57
2018-10-09T00:39:07.785Z,20.80
2018-10-09T00:44:00.417Z,27.37
2018-10-09T00:48:53.046Z,23.60
2018-10-09T00:53:45.742Z,23.17
2018-10-09T00:58:38.560Z,19.43
2018-10-09T01:03:31.854Z,17.50
2018-10-09T01:08:24.538Z,19.70
2018-10-09T01:13:17.305Z,22.20
2018-10-09T01:18:10.011Z,28.03
2018-10-09T01:23:04.225Z,22.33
2018-10-09T01:27:56.968Z,19.93
2018-10-09T01:32:49.590Z,17.50
2018-10-09T01:37:42.328Z,21.53
2018-10-09T01:42:34.990Z,18.33
2018-10-09T01:47:27.550Z,18.97
2018-10-09T01:52:20.178Z,20.60
2018-10-09T01:57:12.818Z,18.20
2018-10-09T02:02:05.513Z,21.53
2018-10-09T02:06:58.110Z,20.47
2018-10-09T02:11:50.749Z,19.67
2018-10-09T02:16:43.460Z,18.53
2018-10-09T02:21:36.089Z,17.23
2018-10-09T02:26:28.728Z,16.03
2018-10-09T02:31:21.321Z,21.13
2018-10-09T02:36:14.286Z,17.97
2018-10-09T02:41:06.949Z,17.77
2018-10-09T02:45:59.596Z,20.07
2018-10-09T02:50:52.190Z,16.93
2018-10-09T02:55:44.819Z,18.33
2018-10-09T03:00:37.430Z,26.23
2018-10-09T03:05:30.055Z,21.20
2018-10-09T03:10:22.681Z,23.00
2018-10-09T03:15:15.366Z,24.83
2018-10-09T03:20:08.182Z,32.97
2018-10-09T03:25:00.878Z,23.50
2018-10-09T03:29:53.762Z,23.70
2018-10-09T03:34:46.408Z,20.47
2018-10-09T03:39:38.999Z,23.13
2018-10-09T03:44:31.704Z,23.17
2018-10-09T03:49:24.459Z,25.83
2018-10-09T03:54:17.107Z,22.50
2018-10-09T03:59:09.794Z,20.73
2018-10-09T04:04:02.412Z,21.77
2018-10-09T04:08:55.191Z,20.03
2018-10-09T04:13:48.193Z,21.07
2018-10-09T04:18:41.445Z,21.57
2018-10-09T04:23:34.159Z,22.30
2018-10-09T04:28:26.803Z,21.27
2018-10-09T04:33:19.638Z,22.30
2018-10-09T04:38:12.272Z,22.13
2018-10-09T04:43:05.305Z,20.83
2018-10-09T04:47:59.277Z,23.57
2018-10-09T04:52:51.973Z,27.90
2018-10-09T04:57:44.622Z,21.93
2018-10-09T05:02:37.517Z,22.97
2018-10-09T05:07:30.152Z,22.83
2018-10-09T05:12:22.885Z,26.53
2018-10-09T05:17:15.781Z,29.93
2018-10-09T05:22:08.504Z,27.90
2018-10-09T05:27:01.249Z,22.87
2018-10-09T05:31:53.832Z,20.83
2018-10-09T05:36:46.615Z,25.90
2018-10-09T05:41:39.238Z,32.13
2018-10-09T05:46:31.996Z,31.67
2018-10-09T05:51:24.774Z,22.63
2018-10-09T05:56:17.498Z,20.77
2018-10-09T06:01:10.129Z,27.03
2018-10-09T06:06:02.963Z,26.50
2018-10-09T06:10:55.652Z,25.37
2018-10-09T06:15:48.513Z,38.43
2018-10-09T06:20:41.204Z,33.43
2018-10-09T06:25:33.870Z,29.23
2018-10-09T06:30:26.572Z,30.60
2018-10-09T06:35:19.281Z,32.53
2018-10-09T06:40:11.909Z,35.43
2018-10-09T06:45:04.850Z,35.77
2018-10-09T06:49:57.485Z,34.93
2018-10-09T06:54:50.195Z,53.73
2018-10-09T06:59:42.776Z,41.00
2018-10-09T07:04:35.435Z,46.13
2018-10-09T07:09:28.143Z,40.40
2018-10-09T07:14:20.864Z,39.97
2018-10-09T07:19:13.579Z,48.30
2018-10-09T07:24:06.226Z,44.00
2018-10-09T07:28:58.891Z,42.53
2018-10-09T07:33:51.635Z,44.63
2018-10-09T07:38:44.358Z,46.37
2018-10-09T07:43:37.186Z,47.30
2018-10-09T07:48:29.873Z,39.97
2018-10-09T07:53:22.582Z,43.93
2018-10-09T07:58:15.390Z,52.23
2018-10-09T08:03:08.049Z,44.63
2018-10-09T08:08:00.664Z,51.47
2018-10-09T08:12:53.415Z,55.30
2018-10-09T08:17:46.163Z,49.33
2018-10-09T08:22:38.928Z,52.60
2018-10-09T08:27:31.830Z,50.63
2018-10-09T08:32:24.659Z,57.30
2018-10-09T08:37:17.363Z,45.30
2018-10-09T08:42:10.402Z,49.07
2018-10-09T08:47:03.270Z,47.33
2018-10-09T08:51:56.091Z,48.53
2018-10-09T08:56:48.667Z,40.50
2018-10-09T09:01:41.427Z,44.33
2018-10-09T09:06:34.425Z,51.63
2018-10-09T09:11:27.297Z,42.93
2018-10-09T09:16:20.824Z,48.50
2018-10-09T09:21:13.984Z,47.37
2018-10-09T09:26:06.873Z,46.37
2018-10-09T09:30:59.823Z,43.10
2018-10-09T09:35:52.754Z,54.80
2018-10-09T09:40:46.118Z,46.30
2018-10-09T09:45:39.212Z,38.77
2018-10-09T09:50:32.317Z,37.73
2018-10-09T09:55:25.214Z,41.50
2018-10-09T10:00:23.842Z,35.40
2018-10-09T10:05:16.555Z,31.07
2018-10-09T10:10:09.206Z,30.40
2018-10-09T10:15:01.987Z,27.40
2018-10-09T10:19:54.657Z,23.93
2018-10-09T10:24:47.329Z,30.07
2018-10-09T10:29:40.021Z,25.03
2018-10-09T10:34:32.758Z,19.83
2018-10-09T10:39:25.558Z,15.67
2018-10-09T10:44:18.177Z,19.27
2018-10-09T10:49:12.650Z,16.57
2018-10-09T10:54:05.478Z,20.80
2018-10-09T10:58:58.233Z,20.17
2018-10-09T11:03:51.180Z,15.60
2018-10-09T11:08:44.114Z,15.90
2018-10-09T11:13:37.235Z,15.67
2018-10-09T11:18:29.932Z,20.70
2018-10-09T11:23:22.605Z,16.23
2018-10-09T11:28:15.236Z,16.63
2018-10-09T11:33:07.991Z,17.57
2018-10-09T11:38:00.642Z,18.03
2018-10-09T11:42:53.441Z,15.23
2018-10-09T11:47:46.030Z,15.30
2018-10-09T11:52:38.686Z,16.47
2018-10-09T11:57:31.470Z,10.83
2018-10-09T12:02:24.167Z,16.53
2018-10-09T12:07:16.775Z,14.03
2018-10-09T12:12:09.390Z,13.17
2018-10-09T12:17:02.185Z,12.63
2018-10-09T12:21:55.043Z,15.90
2018-10-09T12:26:47.677Z,13.67
2018-10-09T12:31:40.452Z,13.63
2018-10-09T12:36:33.392Z,12.07
2018-10-09T12:41:26.319Z,12.33
2018-10-09T12:46:19.139Z,17.40
2018-10-09T12:51:11.732Z,11.30
2018-10-09T12:56:04.470Z,13.10
2018-10-09T13:00:57.114Z,11.20
2018-10-09T13:05:49.797Z,12.33
2018-10-09T13:10:42.470Z,11.47
2018-10-09T13:15:35.091Z,15.10
2018-10-09T13:20:27.826Z,15.03
2018-10-09T13:25:20.598Z,13.67
2018-10-09T13:30:13.348Z,14.93
2018-10-09T13:35:05.970Z,17.10
2018-10-09T13:39:58.589Z,13.03
2018-10-09T13:44:51.291Z,11.97
2018-10-09T13:49:44.019Z,16.47
2018-10-09T13:54:36.756Z,14.50
2018-10-09T13:59:29.479Z,23.97
2018-10-09T14:04:22.177Z,17.60
2018-10-09T14:09:14.919Z,12.50
2018-10-09T14:14:07.563Z,12.77
2018-10-09T14:19:00.229Z,15.37
2018-10-09T14:23:53.028Z,14.47
2018-10-09T14:28:45.771Z,15.50
2018-10-09T14:33:38.412Z,14.93
2018-10-09T14:38:31.102Z,14.90
2018-10-09T14:43:23.782Z,11.83
2018-10-09T14:48:16.445Z,12.87
2018-10-09T14:53:09.026Z,14.67
2018-10-09T14:58:01.765Z,18.73
2018-10-09T15:02:54.430Z,15.50
2018-10-09T15:07:47.043Z,13.00
2018-10-09T15:12:39.727Z,20.37
2018-10-09T15:17:32.395Z,12.73
2018-10-09T15:22:25.009Z,17.03
2018-10-09T15:27:17.664Z,12.57
2018-10-09T15:32:10.362Z,16.03
2018-10-09T15:37:03.067Z,12.53
2018-10-09T15:41:56.454Z,19.13
2018-10-09T15:46:49.103Z,12.40
2018-10-09T15:51:41.841Z,13.37
2018-10-09T15:56:34.614Z,16.40
2018-10-09T16:01:27.282Z,15.17
2018-10-09T16:06:19.990Z,17.53
2018-10-09T16:11:12.787Z,15.93
2018-10-09T16:16:05.652Z,10.93
2018-10-09T16:20:58.438Z,19.93
2018-10-09T16:25:51.199Z,19.53
2018-10-09T16:30:43.946Z,19.63
2018-10-09T16:35:36.919Z,20.83
2018-10-09T16:40:29.701Z,21.63
2018-10-09T16:45:22.317Z,15.53
2018-10-09T16:50:14.859Z,18.27
2018-10-09T16:55:07.549Z,23.07
2018-10-09T17:00:00.217Z,21.87
2018-10-09T17:04:52.954Z,21.90
2018-10-09T17:09:45.853Z,23.03
2018-10-09T17:14:38.388Z,22.93
2018-10-09T17:19:31.093Z,29.73
2018-10-09T17:24:23.828Z,23.93
2018-10-09T17:29:16.490Z,24.80
2018-10-09T17:34:08.971Z,22.30
2018-10-09T17:39:01.630Z,23.73
2018-10-09T17:43:54.327Z,28.70
2018-10-09T17:48:47.004Z,28.10
2018-10-09T17:53:39.691Z,23.63
2018-10-09T17:58:32.680Z,22.50
2018-10-09T18:03:25.379Z,23.13
2018-10-09T18:08:18.679Z,22.23
2018-10-09T18:13:11.306Z,27.37
2018-10-09T18:18:04.209Z,28.77
2018-10-09T18:22:56.893Z,24.60
2018-10-09T18:27:49.560Z,26.83
2018-10-09T18:32:42.585Z,29.27
2018-10-09T18:37:35.013Z,26.83
2018-10-09T18:42:27.608Z,27.27
2018-10-09T18:47:25.951Z,27.73
2018-10-09T18:52:18.524Z,30.97
2018-10-09T18:57:11.084Z,34.20
2018-10-09T19:02:03.877Z,35.40
2018-10-09T19:06:56.591Z,27.27
2018-10-09T19:11:49.330Z,24.93
2018-10-09T19:16:42.011Z,34.33
2018-10-09T19:21:34.759Z,28.77
2018-10-09T19:26:27.414Z,30.27
2018-10-09T19:31:20.165Z,29.90
2018-10-09T19:36:12.978Z,31.77
2018-10-09T19:41:05.944Z,32.33
2018-10-09T19:45:58.717Z,33.33
2018-10-09T19:50:51.616Z,31.17
2018-10-09T19:55:44.131Z,35.00
2018-10-09T20:00:36.734Z,30.73
2018-10-09T20:05:29.422Z,34.13
2018-10-09T20:10:22.193Z,31.80
2018-10-09T20:15:14.866Z,33.13
2018-10-09T20:20:07.518Z,31.80
2018-10-09T20:25:00.132Z,29.97
2018-10-09T20:29:52.795Z,29.57
2018-10-09T20:34:45.466Z,31.87
2018-10-09T20:39:38.126Z,28.07
2018-10-09T20:44:30.693Z,26.27
2018-10-09T20:49:23.382Z,29.87
2018-10-09T20:54:16.018Z,28.17
2018-10-09T20:59:08.629Z,34.73
2018-10-09T21:04:01.188Z,32.93
2018-10-09T21:08:53.855Z,32.47
2018-10-09T21:13:46.506Z,29.43
2018-10-09T21:18:39.114Z,29.33
2018-10-09T21:23:31.878Z,31.53
2018-10-09T21:28:24.845Z,31.03
2018-10-09T21:33:17.428Z,29.10
2018-10-09T21:38:10.024Z,32.20
2018-10-09T21:43:02.719Z,33.13
2018-10-09T21:47:57.368Z,34.73
2018-10-09T21:52:50.366Z,33.97
2018-10-09T21:57:43.033Z,36.80
2018-10-09T22:02:35.731Z,34.70
2018-10-09T22:07:28.402Z,32.90
2018-10-09T22:12:21.208Z,38.77
2018-10-09T22:17:13.933Z,36.47
2018-10-09T22:22:06.585Z,37.57
2018-10-09T22:26:59.293Z,35.60
2018-10-09T22:31:51.907Z,38.47
2018-10-09T22:36:44.642Z,39.50
2018-10-09T22:41:37.382Z,38.97
2018-10-09T22:46:30.044Z,36.47
2018-10-09T22:51:22.704Z,39.87
2018-10-09T22:56:15.365Z,38.60
2018-10-09T23:01:07.999Z,41.80
2018-10-09T23:06:00.648Z,43.67
2018-10-09T23:10:53.390Z,39.30
2018-10-09T23:15:46.023Z,38.97
2018-10-09T23:20:38.775Z,43.10
2018-10-09T23:25:31.574Z,41.33
2018-10-09T23:30:24.281Z,42.47
2018-10-09T23:35:16.869Z,41.43
2018-10-09T23:40:09.461Z,50.10
2018-10-09T23:45:02.127Z,43.13
2018-10-09T23:49:54.834Z,45.27
2018-10-09T23:54:47.501Z,43.07
2018-10-09T23:59:40.112Z,40.40
